sensor_id;sensor_type;location;lat;lon;timestamp;temperature;humidity
17795;DHT22;9021;50.882;4.326;2022-10-22T00:01:11;17.50;99.90
17795;DHT22;9021;50.882;4.326;2022-10-22T00:03:37;17.40;99.90
17795;DHT22;9021;50.882;4.326;2022-10-22T00:06:03;17.40;99.90
17795;DHT22;9021;50.882;4.326;2022-10-22T00:08:28;17.40;99.90
17795;DHT22;9021;50.882;4.326;2022-10-22T00:10:54;17.40;99.90
17795;DHT22;9021;50.882;4.326;2022-10-22T00:13:20;17.40;99.90
17795;DHT22;9021;50.882;4.326;2022-10-22T00:15:46;17.40;99.90
17795;DHT22;9021;50.882;4.326;2022-10-22T00:18:11;17.40;99.90
17795;DHT22;9021;50.882;4.326;2022-10-22T00:20:37;17.50;99.90
17795;DHT22;9021;50.882;4.326;2022-10-22T00:23:02;17.40;99.90
17795;DHT22;9021;50.882;4.326;2022-10-22T00:25:28;17.40;99.90
17795;DHT22;9021;50.882;4.326;2022-10-22T00:27:53;17.40;99.90
17795;DHT22;9021;50.882;4.326;2022-10-22T00:30:19;17.30;99.90
17795;DHT22;9021;50.882;4.326;2022-10-22T00:32:45;17.50;99.90
17795;DHT22;9021;50.882;4.326;2022-10-22T00:35:10;17.60;99.90
17795;DHT22;9021;50.882;4.326;2022-10-22T00:37:36;17.30;99.90
17795;DHT22;9021;50.882;4.326;2022-10-22T00:40:03;17.30;99.90
17795;DHT22;9021;50.882;4.326;2022-10-22T00:42:29;17.20;99.90
17795;DHT22;9021;50.882;4.326;2022-10-22T00:45:16;17.10;99.90
17795;DHT22;9021;50.882;4.326;2022-10-22T00:50:25;17.10;99.90
17795;DHT22;9021;50.882;4.326;2022-10-22T00:52:54;17.20;99.90
17795;DHT22;9021;50.882;4.326;2022-10-22T00:55:20;17.30;99.90
17795;DHT22;9021;50.882;4.326;2022-10-22T00:57:47;17.10;99.90
17795;DHT22;9021;50.882;4.326;2022-10-22T01:00:13;17.10;99.90
17795;DHT22;9021;50.882;4.326;2022-10-22T01:02:38;17.00;99.90
17795;DHT22;9021;50.882;4.326;2022-10-22T01:05:04;17.00;99.90
17795;DHT22;9021;50.882;4.326;2022-10-22T01:07:30;16.90;99.90
17795;DHT22;9021;50.882;4.326;2022-10-22T01:12:45;16.90;99.90
17795;DHT22;9021;50.882;4.326;2022-10-22T01:18:21;16.80;99.90
17795;DHT22;9021;50.882;4.326;2022-10-22T01:26:36;17.00;99.90
17795;DHT22;9021;50.882;4.326;2022-10-22T01:29:42;17.10;99.90
17795;DHT22;9021;50.882;4.326;2022-10-22T01:32:14;17.10;99.90
17795;DHT22;9021;50.882;4.326;2022-10-22T01:34:43;17.00;99.90
17795;DHT22;9021;50.882;4.326;2022-10-22T01:37:13;17.00;99.90
17795;DHT22;9021;50.882;4.326;2022-10-22T01:39:41;16.90;99.90
17795;DHT22;9021;50.882;4.326;2022-10-22T01:42:11;17.00;99.90
17795;DHT22;9021;50.882;4.326;2022-10-22T01:44:37;17.10;99.90
17795;DHT22;9021;50.882;4.326;2022-10-22T01:56:03;16.70;99.90
17795;DHT22;9021;50.882;4.326;2022-10-22T01:58:40;16.80;99.90
17795;DHT22;9021;50.882;4.326;2022-10-22T02:03:58;17.10;99.90
17795;DHT22;9021;50.882;4.326;2022-10-22T02:06:26;16.90;99.90
17795;DHT22;9021;50.882;4.326;2022-10-22T02:08:54;17.00;99.90
17795;DHT22;9021;50.882;4.326;2022-10-22T02:11:20;17.00;99.90
17795;DHT22;9021;50.882;4.326;2022-10-22T02:13:50;16.90;99.90
17795;DHT22;9021;50.882;4.326;2022-10-22T02:16:27;16.80;99.90
17795;DHT22;9021;50.882;4.326;2022-10-22T02:18:57;16.90;99.90
17795;DHT22;9021;50.882;4.326;2022-10-22T02:21:23;17.00;99.90
17795;DHT22;9021;50.882;4.326;2022-10-22T02:23:50;17.00;99.90
17795;DHT22;9021;50.882;4.326;2022-10-22T02:26:53;17.00;99.90
17795;DHT22;9021;50.882;4.326;2022-10-22T02:32:19;17.00;99.90
17795;DHT22;9021;50.882;4.326;2022-10-22T02:34:46;16.90;99.90
17795;DHT22;9021;50.882;4.326;2022-10-22T02:37:13;16.90;99.90
17795;DHT22;9021;50.882;4.326;2022-10-22T02:39:40;16.90;99.90
17795;DHT22;9021;50.882;4.326;2022-10-22T02:42:07;16.80;99.90
17795;DHT22;9021;50.882;4.326;2022-10-22T02:44:33;16.70;99.90
17795;DHT22;9021;50.882;4.326;2022-10-22T02:46:59;16.70;99.90
17795;DHT22;9021;50.882;4.326;2022-10-22T02:49:24;16.70;99.90
17795;DHT22;9021;50.882;4.326;2022-10-22T02:51:50;16.80;99.90
17795;DHT22;9021;50.882;4.326;2022-10-22T02:54:16;16.80;99.90
17795;DHT22;9021;50.882;4.326;2022-10-22T02:56:41;16.80;99.90
17795;DHT22;9021;50.882;4.326;2022-10-22T02:59:07;16.80;99.90
17795;DHT22;9021;50.882;4.326;2022-10-22T03:01:32;16.90;99.90
17795;DHT22;9021;50.882;4.326;2022-10-22T03:03:58;16.80;99.90
17795;DHT22;9021;50.882;4.326;2022-10-22T03:06:23;16.80;99.90
17795;DHT22;9021;50.882;4.326;2022-10-22T03:08:49;16.80;99.90
17795;DHT22;9021;50.882;4.326;2022-10-22T03:11:15;16.70;99.90
17795;DHT22;9021;50.882;4.326;2022-10-22T03:13:41;16.90;99.90
17795;DHT22;9021;50.882;4.326;2022-10-22T03:16:06;16.90;99.90
17795;DHT22;9021;50.882;4.326;2022-10-22T03:18:32;17.00;99.90
17795;DHT22;9021;50.882;4.326;2022-10-22T03:21:29;16.90;99.90
17795;DHT22;9021;50.882;4.326;2022-10-22T03:23:56;16.90;99.90
17795;DHT22;9021;50.882;4.326;2022-10-22T03:26:22;16.80;99.90
17795;DHT22;9021;50.882;4.326;2022-10-22T03:28:49;16.70;99.90
17795;DHT22;9021;50.882;4.326;2022-10-22T03:31:14;16.70;99.90
17795;DHT22;9021;50.882;4.326;2022-10-22T03:33:40;16.70;99.90
17795;DHT22;9021;50.882;4.326;2022-10-22T03:36:07;16.80;99.90
17795;DHT22;9021;50.882;4.326;2022-10-22T03:38:35;16.90;99.90
17795;DHT22;9021;50.882;4.326;2022-10-22T03:41:02;16.80;99.90
17795;DHT22;9021;50.882;4.326;2022-10-22T03:43:27;16.80;99.90
17795;DHT22;9021;50.882;4.326;2022-10-22T03:45:53;16.80;99.90
17795;DHT22;9021;50.882;4.326;2022-10-22T03:48:18;16.80;99.90
17795;DHT22;9021;50.882;4.326;2022-10-22T03:50:44;16.70;99.90
17795;DHT22;9021;50.882;4.326;2022-10-22T03:53:10;16.70;99.90
17795;DHT22;9021;50.882;4.326;2022-10-22T03:55:36;16.70;99.90
17795;DHT22;9021;50.882;4.326;2022-10-22T03:58:03;16.60;99.90
17795;DHT22;9021;50.882;4.326;2022-10-22T04:00:29;16.80;99.90
17795;DHT22;9021;50.882;4.326;2022-10-22T04:02:55;16.60;99.90
17795;DHT22;9021;50.882;4.326;2022-10-22T04:05:20;16.70;99.90
17795;DHT22;9021;50.882;4.326;2022-10-22T04:07:46;16.60;99.90
17795;DHT22;9021;50.882;4.326;2022-10-22T04:10:12;16.70;99.90
17795;DHT22;9021;50.882;4.326;2022-10-22T04:12:37;16.80;99.90
17795;DHT22;9021;50.882;4.326;2022-10-22T04:15:04;16.70;99.90
17795;DHT22;9021;50.882;4.326;2022-10-22T04:17:34;16.70;99.90
17795;DHT22;9021;50.882;4.326;2022-10-22T04:20:01;16.70;99.90
17795;DHT22;9021;50.882;4.326;2022-10-22T04:22:26;16.70;99.90
17795;DHT22;9021;50.882;4.326;2022-10-22T04:24:52;16.60;99.90
17795;DHT22;9021;50.882;4.326;2022-10-22T04:27:18;16.60;99.90
17795;DHT22;9021;50.882;4.326;2022-10-22T04:29:43;16.50;99.90
17795;DHT22;9021;50.882;4.326;2022-10-22T04:32:09;16.60;99.90
17795;DHT22;9021;50.882;4.326;2022-10-22T04:34:34;16.50;99.90
17795;DHT22;9021;50.882;4.326;2022-10-22T04:37:02;16.40;99.90
17795;DHT22;9021;50.882;4.326;2022-10-22T04:39:29;16.50;99.90
17795;DHT22;9021;50.882;4.326;2022-10-22T04:41:54;16.50;99.90
17795;DHT22;9021;50.882;4.326;2022-10-22T04:44:20;16.50;99.90
17795;DHT22;9021;50.882;4.326;2022-10-22T04:46:46;16.50;99.90
17795;DHT22;9021;50.882;4.326;2022-10-22T04:49:11;16.40;99.90
17795;DHT22;9021;50.882;4.326;2022-10-22T04:51:37;16.40;99.90
17795;DHT22;9021;50.882;4.326;2022-10-22T04:54:03;16.50;99.90
17795;DHT22;9021;50.882;4.326;2022-10-22T04:56:30;16.60;99.90
17795;DHT22;9021;50.882;4.326;2022-10-22T04:58:58;16.70;99.90
17795;DHT22;9021;50.882;4.326;2022-10-22T05:01:32;16.60;99.90
17795;DHT22;9021;50.882;4.326;2022-10-22T05:04:01;16.60;99.90
17795;DHT22;9021;50.882;4.326;2022-10-22T05:06:29;16.60;99.90
17795;DHT22;9021;50.882;4.326;2022-10-22T05:08:56;16.60;99.90
17795;DHT22;9021;50.882;4.326;2022-10-22T05:11:28;16.60;99.90
17795;DHT22;9021;50.882;4.326;2022-10-22T05:13:55;16.70;99.90
17795;DHT22;9021;50.882;4.326;2022-10-22T05:16:21;16.80;99.90
17795;DHT22;9021;50.882;4.326;2022-10-22T05:18:47;16.80;99.90
17795;DHT22;9021;50.882;4.326;2022-10-22T05:21:15;16.80;99.90
17795;DHT22;9021;50.882;4.326;2022-10-22T05:23:42;16.90;99.90
17795;DHT22;9021;50.882;4.326;2022-10-22T05:26:09;16.90;99.90
17795;DHT22;9021;50.882;4.326;2022-10-22T05:28:35;16.90;99.90
17795;DHT22;9021;50.882;4.326;2022-10-22T05:31:01;17.00;99.90
17795;DHT22;9021;50.882;4.326;2022-10-22T05:33:28;17.00;99.90
17795;DHT22;9021;50.882;4.326;2022-10-22T05:35:54;16.90;99.90
17795;DHT22;9021;50.882;4.326;2022-10-22T05:38:20;16.80;99.90
17795;DHT22;9021;50.882;4.326;2022-10-22T05:40:45;17.00;99.90
17795;DHT22;9021;50.882;4.326;2022-10-22T05:43:12;17.00;99.90
17795;DHT22;9021;50.882;4.326;2022-10-22T05:45:39;17.00;99.90
17795;DHT22;9021;50.882;4.326;2022-10-22T05:48:05;17.10;99.90
17795;DHT22;9021;50.882;4.326;2022-10-22T05:50:34;17.00;99.90
17795;DHT22;9021;50.882;4.326;2022-10-22T05:53:00;17.00;99.90
17795;DHT22;9021;50.882;4.326;2022-10-22T05:55:26;17.00;99.90
17795;DHT22;9021;50.882;4.326;2022-10-22T05:57:51;17.00;99.90
17795;DHT22;9021;50.882;4.326;2022-10-22T06:00:17;16.80;99.90
17795;DHT22;9021;50.882;4.326;2022-10-22T06:02:43;16.90;99.90
17795;DHT22;9021;50.882;4.326;2022-10-22T06:05:08;16.90;99.90
17795;DHT22;9021;50.882;4.326;2022-10-22T06:07:34;16.90;99.90
17795;DHT22;9021;50.882;4.326;2022-10-22T06:10:01;17.10;99.90
17795;DHT22;9021;50.882;4.326;2022-10-22T06:12:26;17.10;99.90
17795;DHT22;9021;50.882;4.326;2022-10-22T06:14:52;17.00;99.90
17795;DHT22;9021;50.882;4.326;2022-10-22T06:17:18;17.00;99.90
17795;DHT22;9021;50.882;4.326;2022-10-22T06:19:44;17.00;99.90
17795;DHT22;9021;50.882;4.326;2022-10-22T06:22:10;16.90;99.90
17795;DHT22;9021;50.882;4.326;2022-10-22T06:24:35;16.90;99.90
17795;DHT22;9021;50.882;4.326;2022-10-22T06:27:01;17.00;99.90
17795;DHT22;9021;50.882;4.326;2022-10-22T06:29:27;17.00;99.90
17795;DHT22;9021;50.882;4.326;2022-10-22T06:31:53;17.10;99.90
17795;DHT22;9021;50.882;4.326;2022-10-22T06:34:18;17.00;99.90
17795;DHT22;9021;50.882;4.326;2022-10-22T06:36:45;17.00;99.90
17795;DHT22;9021;50.882;4.326;2022-10-22T06:39:13;17.00;99.90
17795;DHT22;9021;50.882;4.326;2022-10-22T06:41:39;17.00;99.90
17795;DHT22;9021;50.882;4.326;2022-10-22T06:44:04;17.10;99.90
17795;DHT22;9021;50.882;4.326;2022-10-22T06:46:30;17.10;99.90
17795;DHT22;9021;50.882;4.326;2022-10-22T06:48:58;17.20;99.90
17795;DHT22;9021;50.882;4.326;2022-10-22T06:51:25;17.20;99.90
17795;DHT22;9021;50.882;4.326;2022-10-22T06:53:52;17.20;99.90
17795;DHT22;9021;50.882;4.326;2022-10-22T06:56:20;17.20;99.90
17795;DHT22;9021;50.882;4.326;2022-10-22T06:58:53;17.20;99.90
17795;DHT22;9021;50.882;4.326;2022-10-22T07:01:22;17.20;99.90
17795;DHT22;9021;50.882;4.326;2022-10-22T07:03:49;17.20;99.90
17795;DHT22;9021;50.882;4.326;2022-10-22T07:06:15;17.30;99.90
17795;DHT22;9021;50.882;4.326;2022-10-22T07:08:41;17.30;99.90
17795;DHT22;9021;50.882;4.326;2022-10-22T07:11:13;17.40;99.90
17795;DHT22;9021;50.882;4.326;2022-10-22T07:13:40;17.40;99.90
17795;DHT22;9021;50.882;4.326;2022-10-22T07:16:06;17.40;99.90
17795;DHT22;9021;50.882;4.326;2022-10-22T07:18:33;17.40;99.90
17795;DHT22;9021;50.882;4.326;2022-10-22T07:21:00;17.40;99.90
17795;DHT22;9021;50.882;4.326;2022-10-22T07:23:26;17.60;99.90
17795;DHT22;9021;50.882;4.326;2022-10-22T07:25:52;17.80;99.90
17795;DHT22;9021;50.882;4.326;2022-10-22T07:28:17;17.90;99.90
17795;DHT22;9021;50.882;4.326;2022-10-22T07:30:43;17.90;99.90
17795;DHT22;9021;50.882;4.326;2022-10-22T07:33:09;17.90;99.90
17795;DHT22;9021;50.882;4.326;2022-10-22T07:35:36;17.70;99.90
17795;DHT22;9021;50.882;4.326;2022-10-22T07:38:01;17.80;99.90
17795;DHT22;9021;50.882;4.326;2022-10-22T07:40:27;17.80;99.90
17795;DHT22;9021;50.882;4.326;2022-10-22T07:42:53;17.90;99.90
17795;DHT22;9021;50.882;4.326;2022-10-22T07:45:19;17.90;99.90
17795;DHT22;9021;50.882;4.326;2022-10-22T07:47:46;18.20;99.90
17795;DHT22;9021;50.882;4.326;2022-10-22T07:50:12;18.30;99.90
17795;DHT22;9021;50.882;4.326;2022-10-22T07:52:37;18.50;99.90
17795;DHT22;9021;50.882;4.326;2022-10-22T07:55:04;18.60;99.90
17795;DHT22;9021;50.882;4.326;2022-10-22T07:57:29;18.80;99.90
17795;DHT22;9021;50.882;4.326;2022-10-22T07:59:56;18.80;99.90
17795;DHT22;9021;50.882;4.326;2022-10-22T08:02:23;18.70;99.90
17795;DHT22;9021;50.882;4.326;2022-10-22T08:04:49;18.60;99.90
17795;DHT22;9021;50.882;4.326;2022-10-22T08:07:14;18.60;99.90
17795;DHT22;9021;50.882;4.326;2022-10-22T08:09:40;18.60;99.90
17795;DHT22;9021;50.882;4.326;2022-10-22T08:12:06;18.70;99.90
17795;DHT22;9021;50.882;4.326;2022-10-22T08:14:32;18.80;99.90
17795;DHT22;9021;50.882;4.326;2022-10-22T08:16:57;18.80;99.90
17795;DHT22;9021;50.882;4.326;2022-10-22T08:19:23;18.90;99.90
17795;DHT22;9021;50.882;4.326;2022-10-22T08:21:49;18.80;99.90
17795;DHT22;9021;50.882;4.326;2022-10-22T08:24:15;18.80;99.90
17795;DHT22;9021;50.882;4.326;2022-10-22T08:26:41;18.60;99.90
17795;DHT22;9021;50.882;4.326;2022-10-22T08:29:07;18.40;99.90
17795;DHT22;9021;50.882;4.326;2022-10-22T08:31:33;18.50;99.90
17795;DHT22;9021;50.882;4.326;2022-10-22T08:33:59;18.50;99.90
17795;DHT22;9021;50.882;4.326;2022-10-22T08:36:24;18.40;99.90
17795;DHT22;9021;50.882;4.326;2022-10-22T08:38:50;18.50;99.90
17795;DHT22;9021;50.882;4.326;2022-10-22T08:41:18;18.40;99.90
17795;DHT22;9021;50.882;4.326;2022-10-22T08:44:09;18.50;99.90
17795;DHT22;9021;50.882;4.326;2022-10-22T08:49:23;18.70;99.90
17795;DHT22;9021;50.882;4.326;2022-10-22T08:51:50;19.00;99.90
17795;DHT22;9021;50.882;4.326;2022-10-22T08:54:39;19.30;99.90
17795;DHT22;9021;50.882;4.326;2022-10-22T09:05:58;19.70;99.90
17795;DHT22;9021;50.882;4.326;2022-10-22T09:07:58;19.70;99.90
17795;DHT22;9021;50.882;4.326;2022-10-22T09:10:28;19.70;99.90
17795;DHT22;9021;50.882;4.326;2022-10-22T09:12:55;19.60;99.90
17795;DHT22;9021;50.882;4.326;2022-10-22T09:15:20;19.60;99.90
17795;DHT22;9021;50.882;4.326;2022-10-22T09:20:53;19.60;99.90
17795;DHT22;9021;50.882;4.326;2022-10-22T09:23:23;19.80;99.90
17795;DHT22;9021;50.882;4.326;2022-10-22T09:25:50;19.90;99.90
17795;DHT22;9021;50.882;4.326;2022-10-22T09:28:17;20.20;99.90
17795;DHT22;9021;50.882;4.326;2022-10-22T09:30:43;20.50;99.90
17795;DHT22;9021;50.882;4.326;2022-10-22T09:38:13;21.20;99.90
17795;DHT22;9021;50.882;4.326;2022-10-22T09:40:47;21.40;99.90
17795;DHT22;9021;50.882;4.326;2022-10-22T09:43:14;21.70;99.90
17795;DHT22;9021;50.882;4.326;2022-10-22T09:45:40;21.90;99.90
17795;DHT22;9021;50.882;4.326;2022-10-22T09:48:22;21.90;99.90
17795;DHT22;9021;50.882;4.326;2022-10-22T09:51:18;22.10;99.90
17795;DHT22;9021;50.882;4.326;2022-10-22T09:53:47;22.00;99.90
17795;DHT22;9021;50.882;4.326;2022-10-22T09:56:46;21.80;99.90
17795;DHT22;9021;50.882;4.326;2022-10-22T09:59:17;21.60;99.90
17795;DHT22;9021;50.882;4.326;2022-10-22T10:01:43;21.50;99.90
17795;DHT22;9021;50.882;4.326;2022-10-22T10:04:11;21.40;99.90
17795;DHT22;9021;50.882;4.326;2022-10-22T10:06:39;22.10;99.90
17795;DHT22;9021;50.882;4.326;2022-10-22T10:09:19;22.70;99.90
17795;DHT22;9021;50.882;4.326;2022-10-22T10:12:05;23.60;99.00
17795;DHT22;9021;50.882;4.326;2022-10-22T10:17:24;24.10;97.80
17795;DHT22;9021;50.882;4.326;2022-10-22T10:36:42;27.10;94.40
17795;DHT22;9021;50.882;4.326;2022-10-22T10:39:23;28.10;93.20
17795;DHT22;9021;50.882;4.326;2022-10-22T10:42:14;27.40;92.60
17795;DHT22;9021;50.882;4.326;2022-10-22T10:49:57;26.40;93.00
17795;DHT22;9021;50.882;4.326;2022-10-22T10:55:24;26.80;92.50
17795;DHT22;9021;50.882;4.326;2022-10-22T11:00:34;24.50;94.10
17795;DHT22;9021;50.882;4.326;2022-10-22T11:05:59;23.00;96.00
17795;DHT22;9021;50.882;4.326;2022-10-22T11:08:36;22.60;96.60
17795;DHT22;9021;50.882;4.326;2022-10-22T11:11:20;22.30;97.00
17795;DHT22;9021;50.882;4.326;2022-10-22T11:13:56;22.40;97.20
17795;DHT22;9021;50.882;4.326;2022-10-22T11:19:06;22.00;97.40
17795;DHT22;9021;50.882;4.326;2022-10-22T11:22:02;21.90;97.70
17795;DHT22;9021;50.882;4.326;2022-10-22T11:24:38;22.30;97.70
17795;DHT22;9021;50.882;4.326;2022-10-22T11:27:21;24.00;95.90
17795;DHT22;9021;50.882;4.326;2022-10-22T11:29:53;25.80;94.10
17795;DHT22;9021;50.882;4.326;2022-10-22T11:32:21;28.10;92.20
17795;DHT22;9021;50.882;4.326;2022-10-22T11:34:52;29.10;90.40
17795;DHT22;9021;50.882;4.326;2022-10-22T11:37:20;29.80;89.60
17795;DHT22;9021;50.882;4.326;2022-10-22T11:39:53;31.00;87.20
17795;DHT22;9021;50.882;4.326;2022-10-22T11:42:33;30.90;85.60
17795;DHT22;9021;50.882;4.326;2022-10-22T11:47:37;29.10;87.50
17795;DHT22;9021;50.882;4.326;2022-10-22T12:03:42;28.20;86.60
17795;DHT22;9021;50.882;4.326;2022-10-22T12:16:47;28.60;85.40
17795;DHT22;9021;50.882;4.326;2022-10-22T12:19:20;28.20;86.50
17795;DHT22;9021;50.882;4.326;2022-10-22T12:22:01;28.40;86.50
17795;DHT22;9021;50.882;4.326;2022-10-22T12:24:33;28.50;86.10
17795;DHT22;9021;50.882;4.326;2022-10-22T12:26:59;27.70;86.80
17795;DHT22;9021;50.882;4.326;2022-10-22T12:29:25;26.50;87.90
17795;DHT22;9021;50.882;4.326;2022-10-22T12:31:52;25.60;89.70
17795;DHT22;9021;50.882;4.326;2022-10-22T12:34:20;25.60;90.30
17795;DHT22;9021;50.882;4.326;2022-10-22T12:36:47;25.60;90.40
17795;DHT22;9021;50.882;4.326;2022-10-22T12:39:16;25.30;90.60
17795;DHT22;9021;50.882;4.326;2022-10-22T12:41:43;25.50;90.70
17795;DHT22;9021;50.882;4.326;2022-10-22T12:44:15;26.20;90.30
17795;DHT22;9021;50.882;4.326;2022-10-22T12:46:42;27.50;88.70
17795;DHT22;9021;50.882;4.326;2022-10-22T12:49:16;28.60;86.50
17795;DHT22;9021;50.882;4.326;2022-10-22T12:51:42;28.00;86.10
17795;DHT22;9021;50.882;4.326;2022-10-22T12:54:23;26.70;88.50
17795;DHT22;9021;50.882;4.326;2022-10-22T12:56:50;26.60;89.00
17795;DHT22;9021;50.882;4.326;2022-10-22T12:59:24;27.50;87.00
17795;DHT22;9021;50.882;4.326;2022-10-22T13:01:52;28.40;85.30
17795;DHT22;9021;50.882;4.326;2022-10-22T13:04:31;28.90;84.40
17795;DHT22;9021;50.882;4.326;2022-10-22T13:09:56;29.60;82.50
17795;DHT22;9021;50.882;4.326;2022-10-22T13:12:27;28.70;83.40
17795;DHT22;9021;50.882;4.326;2022-10-22T13:14:53;27.30;85.60
17795;DHT22;9021;50.882;4.326;2022-10-22T13:17:19;26.40;87.20
17795;DHT22;9021;50.882;4.326;2022-10-22T13:27:44;25.30;90.30
17795;DHT22;9021;50.882;4.326;2022-10-22T13:31:18;25.50;90.30
17795;DHT22;9021;50.882;4.326;2022-10-22T13:33:36;26.30;89.00
17795;DHT22;9021;50.882;4.326;2022-10-22T13:36:03;27.20;87.30
17795;DHT22;9021;50.882;4.326;2022-10-22T13:38:29;27.30;87.40
17795;DHT22;9021;50.882;4.326;2022-10-22T13:40:55;27.10;87.70
17795;DHT22;9021;50.882;4.326;2022-10-22T13:43:21;26.80;87.80
17795;DHT22;9021;50.882;4.326;2022-10-22T13:45:47;26.50;88.10
17795;DHT22;9021;50.882;4.326;2022-10-22T13:48:18;26.20;89.20
17795;DHT22;9021;50.882;4.326;2022-10-22T13:50:46;26.30;88.80
17795;DHT22;9021;50.882;4.326;2022-10-22T13:53:18;26.20;89.00
17795;DHT22;9021;50.882;4.326;2022-10-22T13:55:45;25.90;89.10
17795;DHT22;9021;50.882;4.326;2022-10-22T13:58:11;25.70;89.60
17795;DHT22;9021;50.882;4.326;2022-10-22T14:00:40;25.40;90.10
17795;DHT22;9021;50.882;4.326;2022-10-22T14:03:10;25.20;90.40
17795;DHT22;9021;50.882;4.326;2022-10-22T14:05:36;24.90;90.60
17795;DHT22;9021;50.882;4.326;2022-10-22T14:08:01;24.60;91.00
17795;DHT22;9021;50.882;4.326;2022-10-22T14:10:27;24.30;91.00
17795;DHT22;9021;50.882;4.326;2022-10-22T14:12:53;24.10;91.40
17795;DHT22;9021;50.882;4.326;2022-10-22T14:15:20;23.90;91.70
17795;DHT22;9021;50.882;4.326;2022-10-22T14:17:50;23.90;91.50
17795;DHT22;9021;50.882;4.326;2022-10-22T14:20:19;23.50;92.00
17795;DHT22;9021;50.882;4.326;2022-10-22T14:22:47;23.30;92.40
17795;DHT22;9021;50.882;4.326;2022-10-22T14:25:22;23.50;92.30
17795;DHT22;9021;50.882;4.326;2022-10-22T14:27:48;23.50;92.40
17795;DHT22;9021;50.882;4.326;2022-10-22T14:30:16;23.50;92.50
17795;DHT22;9021;50.882;4.326;2022-10-22T14:32:42;23.40;92.50
17795;DHT22;9021;50.882;4.326;2022-10-22T14:35:11;23.40;92.90
17795;DHT22;9021;50.882;4.326;2022-10-22T14:37:38;23.50;92.50
17795;DHT22;9021;50.882;4.326;2022-10-22T14:40:04;23.50;93.00
17795;DHT22;9021;50.882;4.326;2022-10-22T14:42:39;23.50;92.80
17795;DHT22;9021;50.882;4.326;2022-10-22T14:45:08;23.60;92.40
17795;DHT22;9021;50.882;4.326;2022-10-22T14:47:37;23.60;92.60
17795;DHT22;9021;50.882;4.326;2022-10-22T14:50:03;23.70;92.40
17795;DHT22;9021;50.882;4.326;2022-10-22T14:52:29;23.80;92.50
17795;DHT22;9021;50.882;4.326;2022-10-22T14:54:54;23.70;92.60
17795;DHT22;9021;50.882;4.326;2022-10-22T14:57:20;23.50;92.50
17795;DHT22;9021;50.882;4.326;2022-10-22T14:59:45;23.40;92.80
17795;DHT22;9021;50.882;4.326;2022-10-22T15:02:11;23.50;92.80
17795;DHT22;9021;50.882;4.326;2022-10-22T15:04:38;23.40;93.00
17795;DHT22;9021;50.882;4.326;2022-10-22T15:07:03;23.50;93.00
17795;DHT22;9021;50.882;4.326;2022-10-22T15:09:29;23.50;92.90
17795;DHT22;9021;50.882;4.326;2022-10-22T15:11:55;23.20;93.00
17795;DHT22;9021;50.882;4.326;2022-10-22T15:14:21;23.10;93.00
17795;DHT22;9021;50.882;4.326;2022-10-22T15:16:46;22.70;93.30
17795;DHT22;9021;50.882;4.326;2022-10-22T15:19:12;22.40;93.70
17795;DHT22;9021;50.882;4.326;2022-10-22T15:21:38;22.40;93.70
17795;DHT22;9021;50.882;4.326;2022-10-22T15:24:04;22.70;93.70
17795;DHT22;9021;50.882;4.326;2022-10-22T15:26:30;22.60;93.60
17795;DHT22;9021;50.882;4.326;2022-10-22T15:28:55;22.50;93.80
17795;DHT22;9021;50.882;4.326;2022-10-22T15:31:50;22.30;94.00
17795;DHT22;9021;50.882;4.326;2022-10-22T15:34:25;22.30;94.20
17795;DHT22;9021;50.882;4.326;2022-10-22T15:36:52;22.30;94.30
17795;DHT22;9021;50.882;4.326;2022-10-22T15:39:18;22.30;94.40
17795;DHT22;9021;50.882;4.326;2022-10-22T15:41:44;22.30;94.50
17795;DHT22;9021;50.882;4.326;2022-10-22T15:44:18;22.30;94.40
17795;DHT22;9021;50.882;4.326;2022-10-22T15:46:44;22.30;94.60
17795;DHT22;9021;50.882;4.326;2022-10-22T15:49:09;22.30;94.70
17795;DHT22;9021;50.882;4.326;2022-10-22T15:51:35;22.20;94.80
17795;DHT22;9021;50.882;4.326;2022-10-22T15:54:01;22.10;95.10
17795;DHT22;9021;50.882;4.326;2022-10-22T15:56:27;22.10;95.10
17795;DHT22;9021;50.882;4.326;2022-10-22T15:58:59;22.10;95.10
17795;DHT22;9021;50.882;4.326;2022-10-22T16:01:27;22.00;95.30
17795;DHT22;9021;50.882;4.326;2022-10-22T16:03:53;21.90;95.60
17795;DHT22;9021;50.882;4.326;2022-10-22T16:06:29;21.80;95.60
17795;DHT22;9021;50.882;4.326;2022-10-22T16:08:56;21.70;95.70
17795;DHT22;9021;50.882;4.326;2022-10-22T16:11:23;21.60;96.00
17795;DHT22;9021;50.882;4.326;2022-10-22T16:13:52;21.50;96.10
17795;DHT22;9021;50.882;4.326;2022-10-22T16:16:18;21.50;96.20
17795;DHT22;9021;50.882;4.326;2022-10-22T16:18:43;21.40;96.30
17795;DHT22;9021;50.882;4.326;2022-10-22T16:21:13;21.30;96.50
17795;DHT22;9021;50.882;4.326;2022-10-22T16:23:41;21.30;96.70
17795;DHT22;9021;50.882;4.326;2022-10-22T16:26:07;21.20;96.70
17795;DHT22;9021;50.882;4.326;2022-10-22T16:28:32;21.20;97.00
17795;DHT22;9021;50.882;4.326;2022-10-22T16:31:03;21.20;97.10
17795;DHT22;9021;50.882;4.326;2022-10-22T16:33:29;21.20;97.40
17795;DHT22;9021;50.882;4.326;2022-10-22T16:35:54;21.20;97.80
17795;DHT22;9021;50.882;4.326;2022-10-22T16:38:20;21.10;98.20
17795;DHT22;9021;50.882;4.326;2022-10-22T16:40:45;21.10;98.20
17795;DHT22;9021;50.882;4.326;2022-10-22T16:43:11;20.90;98.30
17795;DHT22;9021;50.882;4.326;2022-10-22T16:45:37;20.90;98.30
17795;DHT22;9021;50.882;4.326;2022-10-22T16:48:02;20.90;98.60
17795;DHT22;9021;50.882;4.326;2022-10-22T16:50:28;20.70;98.90
17795;DHT22;9021;50.882;4.326;2022-10-22T16:52:54;20.60;99.20
17795;DHT22;9021;50.882;4.326;2022-10-22T16:55:20;20.60;99.40
17795;DHT22;9021;50.882;4.326;2022-10-22T16:57:49;20.50;99.60
17795;DHT22;9021;50.882;4.326;2022-10-22T17:00:16;20.40;99.70
17795;DHT22;9021;50.882;4.326;2022-10-22T17:02:41;20.30;99.90
17795;DHT22;9021;50.882;4.326;2022-10-22T17:05:07;20.20;99.90
17795;DHT22;9021;50.882;4.326;2022-10-22T17:07:33;20.10;99.90
17795;DHT22;9021;50.882;4.326;2022-10-22T17:09:58;20.00;99.90
17795;DHT22;9021;50.882;4.326;2022-10-22T17:12:25;19.90;99.90
17795;DHT22;9021;50.882;4.326;2022-10-22T17:14:51;19.90;99.90
17795;DHT22;9021;50.882;4.326;2022-10-22T17:17:17;19.70;99.90
17795;DHT22;9021;50.882;4.326;2022-10-22T17:19:42;19.60;99.90
17795;DHT22;9021;50.882;4.326;2022-10-22T17:22:08;19.60;99.90
17795;DHT22;9021;50.882;4.326;2022-10-22T17:24:33;19.60;99.90
17795;DHT22;9021;50.882;4.326;2022-10-22T17:26:59;19.60;99.90
17795;DHT22;9021;50.882;4.326;2022-10-22T17:29:25;19.60;99.90
17795;DHT22;9021;50.882;4.326;2022-10-22T17:31:51;19.40;99.90
17795;DHT22;9021;50.882;4.326;2022-10-22T17:34:17;19.20;99.90
17795;DHT22;9021;50.882;4.326;2022-10-22T17:36:43;19.20;99.90
17795;DHT22;9021;50.882;4.326;2022-10-22T17:39:10;19.10;99.90
17795;DHT22;9021;50.882;4.326;2022-10-22T17:41:37;19.10;99.90
17795;DHT22;9021;50.882;4.326;2022-10-22T17:44:05;19.10;99.90
17795;DHT22;9021;50.882;4.326;2022-10-22T17:46:33;19.00;99.90
17795;DHT22;9021;50.882;4.326;2022-10-22T17:49:01;18.90;99.90
17795;DHT22;9021;50.882;4.326;2022-10-22T17:51:29;18.90;99.90
17795;DHT22;9021;50.882;4.326;2022-10-22T17:53:55;18.90;99.90